Blue Diamond, NV (89004)

11:31 AM PDT on August 24, 2016 (GMT -0700)
Red Rock Country Club | | Change Station

Elev 3087 ft 36.15 °N, 115.34 °W | Updated 23 seconds ago

Partly Cloudy
Partly Cloudy
87.4 °F
Feels Like 85 °F
N
0.0
Wind Variable Wind from South
Gusts 1.0 mph

Today
High -- | Low -- °F
--% Chance of Precip.
Yesterday
High -- | Low -- °F
Precip. -- in
Pressure 29.92 in
Visibility 10.0 miles
Clouds Few 12000 ft
Heat Index 85 °F
Dew Point 53 °F
Humidity 31%
Rainfall 0.00 in
Snow Depth Not available.
6:07 AM 7:19 PM
Waning Gibbous, 54% visible
METAR KLAS 241756Z 07003KT 10SM FEW120 32/09 A3001 RMK AO2 SLP132 T03220089 10322 20244 58002 $
Pressure 29.92 in
Visibility 10.0 miles
Clouds Few 12000 ft
Heat Index 85 °F
Dew Point 53 °F
Humidity 31%
Rainfall 0.00 in
Snow Depth Not available.
6:07 AM 7:19 PM
Waning Gibbous, 54% visible
METAR KLAS 241756Z 07003KT 10SM FEW120 32/09 A3001 RMK AO2 SLP132 T03220089 10322 20244 58002 $

10-Day Weather Forecast

Almanac

Astronomy

Aug. 24, 2016 Rise Set
Actual Time
Civil Twilight
Nautical Twilight
Astronomical Twilight
Moon
Length of Visible Light
Length of Day
Tomorrow will be .
, % of the Moon is Illuminated

Today's Extremes

State Highs State Lows

Community

WunderPhotos

Upload Photos

1,934,664 photos uploaded!

WunderBlog® & News

Nearby

Air Quality

  Air Quality AQ Index Pollutant
Not available.

Snow Depth

Station Depth Elevation

Earthquake Activity

City Distance Mag. Time & Date
Minimum magnitude displayed is 2.5.

Coastal Water Temperatures

Place Temperature

Stations

Nearby Weather Stations

Station Location Temp. Windchill Dew Point Humidity Wind Precip. Elev Updated Type
                   

Watches & Warnings

There are currently no watches in effect.